sensor_id;sensor_type;location;lat;lon;timestamp;P1;durP1;ratioP1;P2;durP2;ratioP2
21814;SDS011;11069;48.988;8.450;2022-08-21T00:01:02;6.03;;;2.75;;
21814;SDS011;11069;48.988;8.450;2022-08-21T00:03:31;5.55;;;2.80;;
21814;SDS011;11069;48.988;8.450;2022-08-21T00:05:56;4.10;;;2.83;;
21814;SDS011;11069;48.988;8.450;2022-08-21T00:08:22;5.28;;;2.70;;
21814;SDS011;11069;48.988;8.450;2022-08-21T00:10:48;4.20;;;2.90;;
21814;SDS011;11069;48.988;8.450;2022-08-21T00:13:14;5.85;;;3.10;;
21814;SDS011;11069;48.988;8.450;2022-08-21T00:15:41;4.85;;;3.05;;
21814;SDS011;11069;48.988;8.450;2022-08-21T00:18:08;4.65;;;3.00;;
21814;SDS011;11069;48.988;8.450;2022-08-21T00:20:36;4.55;;;2.80;;
21814;SDS011;11069;48.988;8.450;2022-08-21T00:23:02;5.68;;;3.10;;
21814;SDS011;11069;48.988;8.450;2022-08-21T00:25:28;5.03;;;2.90;;
21814;SDS011;11069;48.988;8.450;2022-08-21T00:27:55;6.20;;;2.90;;
21814;SDS011;11069;48.988;8.450;2022-08-21T00:30:21;6.82;;;3.20;;
21814;SDS011;11069;48.988;8.450;2022-08-21T00:32:48;6.25;;;3.10;;
21814;SDS011;11069;48.988;8.450;2022-08-21T00:35:16;5.10;;;3.00;;
21814;SDS011;11069;48.988;8.450;2022-08-21T00:37:43;5.10;;;2.67;;
21814;SDS011;11069;48.988;8.450;2022-08-21T00:40:11;5.55;;;3.25;;
21814;SDS011;11069;48.988;8.450;2022-08-21T00:45:06;7.38;;;3.30;;
21814;SDS011;11069;48.988;8.450;2022-08-21T00:47:32;7.55;;;3.03;;
21814;SDS011;11069;48.988;8.450;2022-08-21T00:49:58;5.22;;;3.10;;
21814;SDS011;11069;48.988;8.450;2022-08-21T00:52:24;4.78;;;2.80;;
21814;SDS011;11069;48.988;8.450;2022-08-21T00:54:53;7.63;;;3.30;;
21814;SDS011;11069;48.988;8.450;2022-08-21T00:57:26;6.72;;;3.30;;
21814;SDS011;11069;48.988;8.450;2022-08-21T01:00:01;8.63;;;3.28;;
21814;SDS011;11069;48.988;8.450;2022-08-21T01:02:31;5.82;;;3.00;;
21814;SDS011;11069;48.988;8.450;2022-08-21T01:04:56;6.72;;;2.90;;
21814;SDS011;11069;48.988;8.450;2022-08-21T01:07:22;7.13;;;3.20;;
21814;SDS011;11069;48.988;8.450;2022-08-21T01:09:48;7.68;;;3.33;;
21814;SDS011;11069;48.988;8.450;2022-08-21T01:12:14;8.20;;;3.10;;
21814;SDS011;11069;48.988;8.450;2022-08-21T01:14:40;6.20;;;3.38;;
21814;SDS011;11069;48.988;8.450;2022-08-21T01:17:07;8.60;;;3.25;;
21814;SDS011;11069;48.988;8.450;2022-08-21T01:19:35;6.03;;;3.75;;
21814;SDS011;11069;48.988;8.450;2022-08-21T01:22:00;4.95;;;3.25;;
21814;SDS011;11069;48.988;8.450;2022-08-21T01:24:26;7.28;;;3.45;;
21814;SDS011;11069;48.988;8.450;2022-08-21T01:26:52;6.95;;;3.65;;
21814;SDS011;11069;48.988;8.450;2022-08-21T01:32:10;6.38;;;3.80;;
21814;SDS011;11069;48.988;8.450;2022-08-21T01:34:40;6.07;;;3.42;;
21814;SDS011;11069;48.988;8.450;2022-08-21T01:37:07;6.30;;;3.67;;
21814;SDS011;11069;48.988;8.450;2022-08-21T01:39:33;6.22;;;3.33;;
21814;SDS011;11069;48.988;8.450;2022-08-21T01:42:00;4.47;;;3.08;;
21814;SDS011;11069;48.988;8.450;2022-08-21T01:44:26;9.43;;;3.35;;
21814;SDS011;11069;48.988;8.450;2022-08-21T01:46:52;6.63;;;3.53;;
21814;SDS011;11069;48.988;8.450;2022-08-21T01:49:18;6.85;;;3.05;;
21814;SDS011;11069;48.988;8.450;2022-08-21T01:51:44;4.88;;;3.03;;
21814;SDS011;11069;48.988;8.450;2022-08-21T01:54:10;8.15;;;3.22;;
21814;SDS011;11069;48.988;8.450;2022-08-21T01:56:43;6.25;;;3.63;;
21814;SDS011;11069;48.988;8.450;2022-08-21T01:59:13;4.65;;;3.28;;
21814;SDS011;11069;48.988;8.450;2022-08-21T02:01:39;4.82;;;3.40;;
21814;SDS011;11069;48.988;8.450;2022-08-21T02:04:05;5.78;;;3.45;;
21814;SDS011;11069;48.988;8.450;2022-08-21T02:06:32;5.45;;;3.50;;
21814;SDS011;11069;48.988;8.450;2022-08-21T02:08:57;5.55;;;3.55;;
21814;SDS011;11069;48.988;8.450;2022-08-21T02:11:23;6.82;;;3.50;;
21814;SDS011;11069;48.988;8.450;2022-08-21T02:13:49;6.07;;;3.83;;
21814;SDS011;11069;48.988;8.450;2022-08-21T02:16:15;5.32;;;3.70;;
21814;SDS011;11069;48.988;8.450;2022-08-21T02:18:41;7.50;;;3.45;;
21814;SDS011;11069;48.988;8.450;2022-08-21T02:21:08;6.88;;;3.58;;
21814;SDS011;11069;48.988;8.450;2022-08-21T02:23:33;8.75;;;3.63;;
21814;SDS011;11069;48.988;8.450;2022-08-21T02:26:00;7.80;;;3.22;;
21814;SDS011;11069;48.988;8.450;2022-08-21T02:28:27;5.18;;;3.75;;
21814;SDS011;11069;48.988;8.450;2022-08-21T02:30:54;7.45;;;3.88;;
21814;SDS011;11069;48.988;8.450;2022-08-21T02:33:21;5.22;;;3.38;;
21814;SDS011;11069;48.988;8.450;2022-08-21T02:35:47;7.13;;;3.30;;
21814;SDS011;11069;48.988;8.450;2022-08-21T02:38:14;5.88;;;3.95;;
21814;SDS011;11069;48.988;8.450;2022-08-21T02:40:47;5.90;;;3.55;;
21814;SDS011;11069;48.988;8.450;2022-08-21T02:43:13;7.88;;;3.72;;
21814;SDS011;11069;48.988;8.450;2022-08-21T02:45:40;8.30;;;3.90;;
21814;SDS011;11069;48.988;8.450;2022-08-21T02:48:07;8.13;;;3.97;;
21814;SDS011;11069;48.988;8.450;2022-08-21T02:50:39;9.07;;;3.92;;
21814;SDS011;11069;48.988;8.450;2022-08-21T02:53:08;8.38;;;3.65;;
21814;SDS011;11069;48.988;8.450;2022-08-21T02:55:34;6.32;;;3.63;;
21814;SDS011;11069;48.988;8.450;2022-08-21T02:58:02;5.85;;;3.50;;
21814;SDS011;11069;48.988;8.450;2022-08-21T03:00:29;5.82;;;3.58;;
21814;SDS011;11069;48.988;8.450;2022-08-21T03:02:56;5.28;;;3.72;;
21814;SDS011;11069;48.988;8.450;2022-08-21T03:05:23;4.30;;;3.60;;
21814;SDS011;11069;48.988;8.450;2022-08-21T03:07:50;5.72;;;3.83;;
21814;SDS011;11069;48.988;8.450;2022-08-21T03:10:17;7.85;;;3.40;;
21814;SDS011;11069;48.988;8.450;2022-08-21T03:12:45;6.15;;;3.78;;
21814;SDS011;11069;48.988;8.450;2022-08-21T03:15:12;5.13;;;3.58;;
21814;SDS011;11069;48.988;8.450;2022-08-21T03:17:39;5.85;;;3.60;;
21814;SDS011;11069;48.988;8.450;2022-08-21T03:20:06;8.15;;;3.85;;
21814;SDS011;11069;48.988;8.450;2022-08-21T03:22:32;6.07;;;3.78;;
21814;SDS011;11069;48.988;8.450;2022-08-21T03:24:58;5.68;;;3.50;;
21814;SDS011;11069;48.988;8.450;2022-08-21T03:27:25;9.07;;;4.18;;
21814;SDS011;11069;48.988;8.450;2022-08-21T03:29:53;4.88;;;3.67;;
21814;SDS011;11069;48.988;8.450;2022-08-21T03:32:19;5.38;;;4.07;;
21814;SDS011;11069;48.988;8.450;2022-08-21T03:34:46;5.05;;;3.70;;
21814;SDS011;11069;48.988;8.450;2022-08-21T03:37:12;7.57;;;3.60;;
21814;SDS011;11069;48.988;8.450;2022-08-21T03:39:42;7.10;;;3.73;;
21814;SDS011;11069;48.988;8.450;2022-08-21T03:42:09;7.28;;;4.22;;
21814;SDS011;11069;48.988;8.450;2022-08-21T03:44:36;7.35;;;3.92;;
21814;SDS011;11069;48.988;8.450;2022-08-21T03:47:04;5.47;;;3.80;;
21814;SDS011;11069;48.988;8.450;2022-08-21T03:49:30;6.60;;;4.05;;
21814;SDS011;11069;48.988;8.450;2022-08-21T03:51:56;6.55;;;3.53;;
21814;SDS011;11069;48.988;8.450;2022-08-21T03:54:22;7.10;;;4.05;;
21814;SDS011;11069;48.988;8.450;2022-08-21T03:56:48;7.07;;;4.25;;
21814;SDS011;11069;48.988;8.450;2022-08-21T03:59:14;7.95;;;4.35;;
21814;SDS011;11069;48.988;8.450;2022-08-21T04:01:40;5.60;;;3.90;;
21814;SDS011;11069;48.988;8.450;2022-08-21T04:04:19;8.38;;;4.15;;
21814;SDS011;11069;48.988;8.450;2022-08-21T04:06:45;5.25;;;4.03;;
21814;SDS011;11069;48.988;8.450;2022-08-21T04:09:11;4.82;;;4.20;;
21814;SDS011;11069;48.988;8.450;2022-08-21T04:11:36;5.70;;;4.00;;
21814;SDS011;11069;48.988;8.450;2022-08-21T04:14:02;7.00;;;4.25;;
21814;SDS011;11069;48.988;8.450;2022-08-21T04:16:28;7.57;;;4.38;;
21814;SDS011;11069;48.988;8.450;2022-08-21T04:18:53;5.97;;;4.25;;
21814;SDS011;11069;48.988;8.450;2022-08-21T04:21:19;6.93;;;4.50;;
21814;SDS011;11069;48.988;8.450;2022-08-21T04:23:44;5.30;;;4.05;;
21814;SDS011;11069;48.988;8.450;2022-08-21T04:26:10;7.93;;;4.10;;
21814;SDS011;11069;48.988;8.450;2022-08-21T04:28:36;5.95;;;4.05;;
21814;SDS011;11069;48.988;8.450;2022-08-21T04:31:02;8.48;;;4.47;;
21814;SDS011;11069;48.988;8.450;2022-08-21T04:33:27;6.03;;;4.10;;
21814;SDS011;11069;48.988;8.450;2022-08-21T04:35:54;7.35;;;4.70;;
21814;SDS011;11069;48.988;8.450;2022-08-21T04:38:19;6.35;;;4.53;;
21814;SDS011;11069;48.988;8.450;2022-08-21T04:40:45;6.18;;;4.05;;
21814;SDS011;11069;48.988;8.450;2022-08-21T04:43:12;6.38;;;4.45;;
21814;SDS011;11069;48.988;8.450;2022-08-21T04:45:42;7.82;;;4.18;;
21814;SDS011;11069;48.988;8.450;2022-08-21T04:48:10;6.50;;;4.05;;
21814;SDS011;11069;48.988;8.450;2022-08-21T04:50:39;6.45;;;4.30;;
21814;SDS011;11069;48.988;8.450;2022-08-21T04:53:33;7.93;;;4.43;;
21814;SDS011;11069;48.988;8.450;2022-08-21T04:56:08;7.72;;;4.57;;
21814;SDS011;11069;48.988;8.450;2022-08-21T04:58:37;7.10;;;4.90;;
21814;SDS011;11069;48.988;8.450;2022-08-21T05:01:04;6.32;;;4.82;;
21814;SDS011;11069;48.988;8.450;2022-08-21T05:03:34;7.85;;;4.38;;
21814;SDS011;11069;48.988;8.450;2022-08-21T05:06:06;7.78;;;4.60;;
21814;SDS011;11069;48.988;8.450;2022-08-21T05:08:33;7.05;;;4.40;;
21814;SDS011;11069;48.988;8.450;2022-08-21T05:10:59;6.15;;;4.20;;
21814;SDS011;11069;48.988;8.450;2022-08-21T05:13:25;6.95;;;4.65;;
21814;SDS011;11069;48.988;8.450;2022-08-21T05:15:51;9.23;;;4.80;;
21814;SDS011;11069;48.988;8.450;2022-08-21T05:18:16;6.88;;;4.57;;
21814;SDS011;11069;48.988;8.450;2022-08-21T05:20:42;8.30;;;4.75;;
21814;SDS011;11069;48.988;8.450;2022-08-21T05:23:11;6.88;;;4.85;;
21814;SDS011;11069;48.988;8.450;2022-08-21T05:25:39;6.03;;;4.20;;
21814;SDS011;11069;48.988;8.450;2022-08-21T05:28:06;7.03;;;4.65;;
21814;SDS011;11069;48.988;8.450;2022-08-21T05:30:32;6.60;;;4.07;;
21814;SDS011;11069;48.988;8.450;2022-08-21T05:32:59;8.88;;;4.50;;
21814;SDS011;11069;48.988;8.450;2022-08-21T05:35:27;5.88;;;4.43;;
21814;SDS011;11069;48.988;8.450;2022-08-21T05:37:54;6.82;;;4.32;;
21814;SDS011;11069;48.988;8.450;2022-08-21T05:40:20;5.35;;;3.90;;
21814;SDS011;11069;48.988;8.450;2022-08-21T05:42:46;6.50;;;4.13;;
21814;SDS011;11069;48.988;8.450;2022-08-21T05:45:12;7.85;;;4.13;;
21814;SDS011;11069;48.988;8.450;2022-08-21T05:47:38;8.93;;;4.30;;
21814;SDS011;11069;48.988;8.450;2022-08-21T05:50:04;8.20;;;4.38;;
21814;SDS011;11069;48.988;8.450;2022-08-21T05:52:30;7.85;;;3.97;;
21814;SDS011;11069;48.988;8.450;2022-08-21T05:54:56;7.32;;;4.32;;
21814;SDS011;11069;48.988;8.450;2022-08-21T05:57:22;6.35;;;4.10;;
21814;SDS011;11069;48.988;8.450;2022-08-21T05:59:48;8.80;;;4.50;;
21814;SDS011;11069;48.988;8.450;2022-08-21T06:02:16;5.68;;;4.03;;
21814;SDS011;11069;48.988;8.450;2022-08-21T06:04:43;6.97;;;4.10;;
21814;SDS011;11069;48.988;8.450;2022-08-21T06:07:09;9.80;;;4.20;;
21814;SDS011;11069;48.988;8.450;2022-08-21T06:09:34;8.20;;;4.18;;
21814;SDS011;11069;48.988;8.450;2022-08-21T06:12:07;7.53;;;3.67;;
21814;SDS011;11069;48.988;8.450;2022-08-21T06:14:35;7.63;;;4.03;;
21814;SDS011;11069;48.988;8.450;2022-08-21T06:17:05;6.65;;;3.92;;
21814;SDS011;11069;48.988;8.450;2022-08-21T06:19:33;7.72;;;3.97;;
21814;SDS011;11069;48.988;8.450;2022-08-21T06:21:59;7.05;;;3.67;;
21814;SDS011;11069;48.988;8.450;2022-08-21T06:24:25;5.85;;;3.72;;
21814;SDS011;11069;48.988;8.450;2022-08-21T06:26:51;5.97;;;3.50;;
21814;SDS011;11069;48.988;8.450;2022-08-21T06:29:17;7.50;;;3.80;;
21814;SDS011;11069;48.988;8.450;2022-08-21T06:31:44;6.32;;;3.40;;
21814;SDS011;11069;48.988;8.450;2022-08-21T06:34:11;6.07;;;3.92;;
21814;SDS011;11069;48.988;8.450;2022-08-21T06:36:36;7.95;;;3.95;;
21814;SDS011;11069;48.988;8.450;2022-08-21T06:39:02;6.78;;;3.50;;
21814;SDS011;11069;48.988;8.450;2022-08-21T06:41:28;7.30;;;3.50;;
21814;SDS011;11069;48.988;8.450;2022-08-21T06:43:54;5.60;;;3.70;;
21814;SDS011;11069;48.988;8.450;2022-08-21T06:46:20;6.40;;;3.65;;
21814;SDS011;11069;48.988;8.450;2022-08-21T06:48:46;7.25;;;3.58;;
21814;SDS011;11069;48.988;8.450;2022-08-21T06:51:11;9.35;;;3.58;;
21814;SDS011;11069;48.988;8.450;2022-08-21T06:53:37;7.50;;;3.45;;
21814;SDS011;11069;48.988;8.450;2022-08-21T06:56:03;8.45;;;3.83;;
21814;SDS011;11069;48.988;8.450;2022-08-21T06:58:29;7.28;;;3.40;;
21814;SDS011;11069;48.988;8.450;2022-08-21T07:00:55;9.82;;;3.60;;
21814;SDS011;11069;48.988;8.450;2022-08-21T07:03:22;7.32;;;3.47;;
21814;SDS011;11069;48.988;8.450;2022-08-21T07:05:51;7.63;;;3.27;;
21814;SDS011;11069;48.988;8.450;2022-08-21T07:08:16;9.13;;;3.60;;
21814;SDS011;11069;48.988;8.450;2022-08-21T07:10:42;7.60;;;3.13;;
21814;SDS011;11069;48.988;8.450;2022-08-21T07:13:08;7.40;;;3.42;;
21814;SDS011;11069;48.988;8.450;2022-08-21T07:15:34;6.20;;;3.10;;
21814;SDS011;11069;48.988;8.450;2022-08-21T07:18:00;5.20;;;3.25;;
21814;SDS011;11069;48.988;8.450;2022-08-21T07:20:26;7.10;;;3.28;;
21814;SDS011;11069;48.988;8.450;2022-08-21T07:22:53;8.57;;;3.40;;
21814;SDS011;11069;48.988;8.450;2022-08-21T07:25:19;9.65;;;3.70;;
21814;SDS011;11069;48.988;8.450;2022-08-21T07:27:45;8.77;;;3.47;;
21814;SDS011;11069;48.988;8.450;2022-08-21T07:30:11;8.00;;;3.33;;
21814;SDS011;11069;48.988;8.450;2022-08-21T07:32:36;9.45;;;3.67;;
21814;SDS011;11069;48.988;8.450;2022-08-21T07:35:02;6.97;;;3.47;;
21814;SDS011;11069;48.988;8.450;2022-08-21T07:37:28;11.02;;;3.58;;
21814;SDS011;11069;48.988;8.450;2022-08-21T07:39:54;7.70;;;3.38;;
21814;SDS011;11069;48.988;8.450;2022-08-21T07:42:19;7.60;;;3.15;;
21814;SDS011;11069;48.988;8.450;2022-08-21T07:44:45;5.75;;;3.13;;
21814;SDS011;11069;48.988;8.450;2022-08-21T07:47:11;8.10;;;3.30;;
21814;SDS011;11069;48.988;8.450;2022-08-21T07:49:36;8.35;;;3.53;;
21814;SDS011;11069;48.988;8.450;2022-08-21T07:52:02;6.90;;;3.10;;
21814;SDS011;11069;48.988;8.450;2022-08-21T07:54:28;11.65;;;3.22;;
21814;SDS011;11069;48.988;8.450;2022-08-21T07:56:54;7.00;;;3.50;;
21814;SDS011;11069;48.988;8.450;2022-08-21T07:59:19;6.82;;;2.80;;
21814;SDS011;11069;48.988;8.450;2022-08-21T08:01:45;8.77;;;3.22;;
21814;SDS011;11069;48.988;8.450;2022-08-21T08:04:11;9.10;;;3.20;;
21814;SDS011;11069;48.988;8.450;2022-08-21T08:06:36;6.47;;;3.28;;
21814;SDS011;11069;48.988;8.450;2022-08-21T08:09:02;8.80;;;3.40;;
21814;SDS011;11069;48.988;8.450;2022-08-21T08:11:28;8.20;;;2.92;;
21814;SDS011;11069;48.988;8.450;2022-08-21T08:13:55;6.95;;;3.13;;
21814;SDS011;11069;48.988;8.450;2022-08-21T08:16:22;9.77;;;3.20;;
21814;SDS011;11069;48.988;8.450;2022-08-21T08:18:48;8.95;;;2.83;;
21814;SDS011;11069;48.988;8.450;2022-08-21T08:21:14;5.07;;;3.05;;
21814;SDS011;11069;48.988;8.450;2022-08-21T08:23:40;11.60;;;3.10;;
21814;SDS011;11069;48.988;8.450;2022-08-21T08:26:05;8.43;;;3.60;;
21814;SDS011;11069;48.988;8.450;2022-08-21T08:28:32;7.25;;;3.65;;
21814;SDS011;11069;48.988;8.450;2022-08-21T08:30:59;7.63;;;3.42;;
21814;SDS011;11069;48.988;8.450;2022-08-21T08:33:25;10.63;;;3.33;;
21814;SDS011;11069;48.988;8.450;2022-08-21T08:35:52;8.52;;;3.58;;
21814;SDS011;11069;48.988;8.450;2022-08-21T08:38:19;9.02;;;3.17;;
21814;SDS011;11069;48.988;8.450;2022-08-21T08:43:13;6.03;;;2.97;;
21814;SDS011;11069;48.988;8.450;2022-08-21T08:45:40;7.15;;;3.20;;
21814;SDS011;11069;48.988;8.450;2022-08-21T08:48:12;8.98;;;3.35;;
21814;SDS011;11069;48.988;8.450;2022-08-21T08:53:30;8.77;;;3.47;;
21814;SDS011;11069;48.988;8.450;2022-08-21T08:56:08;7.15;;;3.60;;
21814;SDS011;11069;48.988;8.450;2022-08-21T08:58:40;7.57;;;3.20;;
21814;SDS011;11069;48.988;8.450;2022-08-21T09:01:12;6.88;;;3.30;;
21814;SDS011;11069;48.988;8.450;2022-08-21T09:03:42;7.50;;;3.20;;
21814;SDS011;11069;48.988;8.450;2022-08-21T09:06:42;7.72;;;3.67;;
21814;SDS011;11069;48.988;8.450;2022-08-21T09:09:24;8.77;;;3.60;;
21814;SDS011;11069;48.988;8.450;2022-08-21T09:12:22;8.23;;;3.25;;
21814;SDS011;11069;48.988;8.450;2022-08-21T09:20:47;7.10;;;3.35;;
21814;SDS011;11069;48.988;8.450;2022-08-21T09:26:13;9.38;;;3.95;;
21814;SDS011;11069;48.988;8.450;2022-08-21T09:28:43;7.35;;;3.85;;
21814;SDS011;11069;48.988;8.450;2022-08-21T09:31:24;10.25;;;3.65;;
21814;SDS011;11069;48.988;8.450;2022-08-21T09:33:59;7.22;;;3.42;;
21814;SDS011;11069;48.988;8.450;2022-08-21T09:36:37;9.35;;;3.67;;
21814;SDS011;11069;48.988;8.450;2022-08-21T09:39:09;7.53;;;3.50;;
21814;SDS011;11069;48.988;8.450;2022-08-21T09:41:36;6.45;;;3.58;;
21814;SDS011;11069;48.988;8.450;2022-08-21T09:44:04;9.63;;;3.47;;
21814;SDS011;11069;48.988;8.450;2022-08-21T09:46:30;9.90;;;3.97;;
21814;SDS011;11069;48.988;8.450;2022-08-21T09:48:58;10.68;;;4.18;;
21814;SDS011;11069;48.988;8.450;2022-08-21T09:51:35;9.40;;;4.03;;
21814;SDS011;11069;48.988;8.450;2022-08-21T09:56:34;8.32;;;3.38;;
21814;SDS011;11069;48.988;8.450;2022-08-21T09:59:31;11.68;;;3.65;;
21814;SDS011;11069;48.988;8.450;2022-08-21T10:02:22;7.93;;;3.58;;
21814;SDS011;11069;48.988;8.450;2022-08-21T10:05:00;8.77;;;3.63;;
21814;SDS011;11069;48.988;8.450;2022-08-21T10:07:29;9.70;;;3.72;;
21814;SDS011;11069;48.988;8.450;2022-08-21T10:13:02;11.55;;;3.85;;
21814;SDS011;11069;48.988;8.450;2022-08-21T10:16:02;10.55;;;3.72;;
21814;SDS011;11069;48.988;8.450;2022-08-21T10:19:05;9.10;;;3.40;;
21814;SDS011;11069;48.988;8.450;2022-08-21T10:21:55;7.38;;;3.30;;
21814;SDS011;11069;48.988;8.450;2022-08-21T10:24:31;8.65;;;3.65;;
21814;SDS011;11069;48.988;8.450;2022-08-21T10:27:42;7.93;;;3.70;;
21814;SDS011;11069;48.988;8.450;2022-08-21T10:30:03;10.10;;;3.83;;
21814;SDS011;11069;48.988;8.450;2022-08-21T10:35:26;7.95;;;3.53;;
21814;SDS011;11069;48.988;8.450;2022-08-21T10:40:48;9.77;;;3.53;;
21814;SDS011;11069;48.988;8.450;2022-08-21T10:46:03;8.60;;;2.75;;
21814;SDS011;11069;48.988;8.450;2022-08-21T10:48:58;6.57;;;3.10;;
21814;SDS011;11069;48.988;8.450;2022-08-21T10:54:27;11.05;;;3.10;;
21814;SDS011;11069;48.988;8.450;2022-08-21T10:57:29;7.43;;;3.20;;
21814;SDS011;11069;48.988;8.450;2022-08-21T11:00:04;10.98;;;3.10;;
21814;SDS011;11069;48.988;8.450;2022-08-21T11:02:45;6.03;;;2.92;;
21814;SDS011;11069;48.988;8.450;2022-08-21T11:08:15;6.13;;;2.80;;
21814;SDS011;11069;48.988;8.450;2022-08-21T11:10:47;6.32;;;2.83;;
21814;SDS011;11069;48.988;8.450;2022-08-21T11:18:49;5.15;;;2.58;;
21814;SDS011;11069;48.988;8.450;2022-08-21T11:21:34;11.32;;;3.17;;
21814;SDS011;11069;48.988;8.450;2022-08-21T11:29:44;7.22;;;3.13;;
21814;SDS011;11069;48.988;8.450;2022-08-21T11:43:17;9.02;;;2.72;;
21814;SDS011;11069;48.988;8.450;2022-08-21T11:46:01;7.15;;;2.95;;
21814;SDS011;11069;48.988;8.450;2022-08-21T11:51:33;5.95;;;2.92;;
21814;SDS011;11069;48.988;8.450;2022-08-21T11:54:05;7.13;;;2.92;;
21814;SDS011;11069;48.988;8.450;2022-08-21T11:56:49;6.35;;;3.17;;
21814;SDS011;11069;48.988;8.450;2022-08-21T11:59:39;6.30;;;2.80;;
21814;SDS011;11069;48.988;8.450;2022-08-21T12:02:13;5.70;;;2.65;;
21814;SDS011;11069;48.988;8.450;2022-08-21T12:04:44;6.82;;;3.13;;
21814;SDS011;11069;48.988;8.450;2022-08-21T12:07:28;5.20;;;2.53;;
21814;SDS011;11069;48.988;8.450;2022-08-21T12:10:00;6.13;;;2.58;;
21814;SDS011;11069;48.988;8.450;2022-08-21T12:12:30;5.10;;;3.00;;
21814;SDS011;11069;48.988;8.450;2022-08-21T12:18:04;4.20;;;2.40;;
21814;SDS011;11069;48.988;8.450;2022-08-21T12:25:41;7.15;;;2.67;;
21814;SDS011;11069;48.988;8.450;2022-08-21T12:28:12;5.32;;;2.53;;
21814;SDS011;11069;48.988;8.450;2022-08-21T12:30:42;8.18;;;2.65;;
21814;SDS011;11069;48.988;8.450;2022-08-21T12:33:54;6.15;;;2.78;;
21814;SDS011;11069;48.988;8.450;2022-08-21T12:36:05;6.22;;;2.78;;
21814;SDS011;11069;48.988;8.450;2022-08-21T12:38:45;6.45;;;2.58;;
21814;SDS011;11069;48.988;8.450;2022-08-21T12:41:20;9.07;;;3.03;;
21814;SDS011;11069;48.988;8.450;2022-08-21T12:44:14;7.78;;;2.80;;
21814;SDS011;11069;48.988;8.450;2022-08-21T12:47:01;4.38;;;2.40;;
21814;SDS011;11069;48.988;8.450;2022-08-21T12:49:36;5.13;;;2.60;;
21814;SDS011;11069;48.988;8.450;2022-08-21T12:52:12;8.45;;;2.67;;
21814;SDS011;11069;48.988;8.450;2022-08-21T12:54:45;6.78;;;2.95;;
21814;SDS011;11069;48.988;8.450;2022-08-21T12:57:19;6.05;;;2.40;;
21814;SDS011;11069;48.988;8.450;2022-08-21T12:59:54;6.57;;;2.78;;
21814;SDS011;11069;48.988;8.450;2022-08-21T13:02:32;5.72;;;2.70;;
21814;SDS011;11069;48.988;8.450;2022-08-21T13:05:05;5.35;;;2.60;;
21814;SDS011;11069;48.988;8.450;2022-08-21T13:07:35;6.55;;;2.47;;
21814;SDS011;11069;48.988;8.450;2022-08-21T13:10:04;4.88;;;2.55;;
21814;SDS011;11069;48.988;8.450;2022-08-21T13:12:39;8.60;;;2.90;;
21814;SDS011;11069;48.988;8.450;2022-08-21T13:15:06;4.35;;;2.40;;
21814;SDS011;11069;48.988;8.450;2022-08-21T13:17:34;4.70;;;2.35;;
21814;SDS011;11069;48.988;8.450;2022-08-21T13:20:06;7.57;;;2.80;;
21814;SDS011;11069;48.988;8.450;2022-08-21T13:22:40;5.70;;;2.30;;
21814;SDS011;11069;48.988;8.450;2022-08-21T13:25:14;4.47;;;2.35;;
21814;SDS011;11069;48.988;8.450;2022-08-21T13:27:42;5.00;;;2.42;;
21814;SDS011;11069;48.988;8.450;2022-08-21T13:30:12;3.70;;;2.28;;
21814;SDS011;11069;48.988;8.450;2022-08-21T13:32:43;4.53;;;2.28;;
21814;SDS011;11069;48.988;8.450;2022-08-21T13:35:21;7.97;;;2.63;;
21814;SDS011;11069;48.988;8.450;2022-08-21T13:37:52;5.68;;;2.63;;
21814;SDS011;11069;48.988;8.450;2022-08-21T13:40:25;4.68;;;2.70;;
21814;SDS011;11069;48.988;8.450;2022-08-21T13:42:56;5.00;;;2.40;;
21814;SDS011;11069;48.988;8.450;2022-08-21T13:45:25;5.40;;;2.35;;
21814;SDS011;11069;48.988;8.450;2022-08-21T13:47:55;3.83;;;2.40;;
21814;SDS011;11069;48.988;8.450;2022-08-21T13:50:22;3.47;;;2.30;;
21814;SDS011;11069;48.988;8.450;2022-08-21T13:52:55;4.40;;;2.30;;
21814;SDS011;11069;48.988;8.450;2022-08-21T13:55:20;5.28;;;2.15;;
21814;SDS011;11069;48.988;8.450;2022-08-21T13:57:51;4.97;;;2.60;;
21814;SDS011;11069;48.988;8.450;2022-08-21T14:00:27;3.72;;;2.30;;
21814;SDS011;11069;48.988;8.450;2022-08-21T14:02:59;5.20;;;2.28;;
21814;SDS011;11069;48.988;8.450;2022-08-21T14:05:35;4.68;;;2.42;;
21814;SDS011;11069;48.988;8.450;2022-08-21T14:08:12;4.35;;;2.42;;
21814;SDS011;11069;48.988;8.450;2022-08-21T14:10:48;8.70;;;2.50;;
21814;SDS011;11069;48.988;8.450;2022-08-21T14:13:37;7.00;;;2.45;;
21814;SDS011;11069;48.988;8.450;2022-08-21T14:16:02;5.32;;;2.40;;
21814;SDS011;11069;48.988;8.450;2022-08-21T14:18:42;5.20;;;2.45;;
21814;SDS011;11069;48.988;8.450;2022-08-21T14:21:10;4.63;;;2.55;;
21814;SDS011;11069;48.988;8.450;2022-08-21T14:23:36;3.78;;;2.10;;
21814;SDS011;11069;48.988;8.450;2022-08-21T14:26:04;3.45;;;2.10;;
21814;SDS011;11069;48.988;8.450;2022-08-21T14:28:37;3.53;;;2.40;;
21814;SDS011;11069;48.988;8.450;2022-08-21T14:31:15;4.28;;;2.55;;
21814;SDS011;11069;48.988;8.450;2022-08-21T14:33:42;5.90;;;2.47;;
21814;SDS011;11069;48.988;8.450;2022-08-21T14:36:08;4.45;;;2.40;;
21814;SDS011;11069;48.988;8.450;2022-08-21T14:38:35;5.63;;;2.58;;
21814;SDS011;11069;48.988;8.450;2022-08-21T14:43:48;4.13;;;2.47;;
21814;SDS011;11069;48.988;8.450;2022-08-21T14:46:25;6.70;;;2.60;;
21814;SDS011;11069;48.988;8.450;2022-08-21T14:48:52;5.95;;;2.30;;
21814;SDS011;11069;48.988;8.450;2022-08-21T14:51:18;4.47;;;2.50;;
21814;SDS011;11069;48.988;8.450;2022-08-21T14:53:44;4.28;;;2.55;;
21814;SDS011;11069;48.988;8.450;2022-08-21T14:56:10;3.30;;;2.30;;
21814;SDS011;11069;48.988;8.450;2022-08-21T14:58:38;5.53;;;2.55;;
21814;SDS011;11069;48.988;8.450;2022-08-21T15:01:06;4.57;;;2.28;;
21814;SDS011;11069;48.988;8.450;2022-08-21T15:03:34;5.32;;;2.75;;
21814;SDS011;11069;48.988;8.450;2022-08-21T15:06:00;5.05;;;2.60;;
21814;SDS011;11069;48.988;8.450;2022-08-21T15:08:26;6.72;;;2.90;;
21814;SDS011;11069;48.988;8.450;2022-08-21T15:10:52;5.22;;;2.70;;
21814;SDS011;11069;48.988;8.450;2022-08-21T15:13:19;5.28;;;2.58;;
21814;SDS011;11069;48.988;8.450;2022-08-21T15:15:47;5.30;;;2.67;;
21814;SDS011;11069;48.988;8.450;2022-08-21T15:18:15;4.45;;;2.50;;
21814;SDS011;11069;48.988;8.450;2022-08-21T15:20:40;5.28;;;2.40;;
21814;SDS011;11069;48.988;8.450;2022-08-21T15:26:29;5.63;;;2.53;;
21814;SDS011;11069;48.988;8.450;2022-08-21T15:28:54;8.48;;;2.30;;
21814;SDS011;11069;48.988;8.450;2022-08-21T15:31:20;4.93;;;2.72;;
21814;SDS011;11069;48.988;8.450;2022-08-21T15:33:45;7.10;;;2.53;;
21814;SDS011;11069;48.988;8.450;2022-08-21T15:36:11;6.95;;;2.58;;
21814;SDS011;11069;48.988;8.450;2022-08-21T15:38:37;5.63;;;2.65;;
21814;SDS011;11069;48.988;8.450;2022-08-21T15:41:03;5.65;;;2.53;;
21814;SDS011;11069;48.988;8.450;2022-08-21T15:43:31;5.90;;;2.83;;
21814;SDS011;11069;48.988;8.450;2022-08-21T15:46:03;5.22;;;2.92;;
21814;SDS011;11069;48.988;8.450;2022-08-21T15:48:30;5.90;;;2.67;;
21814;SDS011;11069;48.988;8.450;2022-08-21T15:50:56;5.15;;;2.60;;
21814;SDS011;11069;48.988;8.450;2022-08-21T15:53:21;5.05;;;2.60;;
21814;SDS011;11069;48.988;8.450;2022-08-21T15:55:47;4.78;;;2.47;;
21814;SDS011;11069;48.988;8.450;2022-08-21T15:58:13;4.40;;;2.67;;
21814;SDS011;11069;48.988;8.450;2022-08-21T16:00:41;4.03;;;2.60;;
21814;SDS011;11069;48.988;8.450;2022-08-21T16:03:09;4.95;;;2.70;;
21814;SDS011;11069;48.988;8.450;2022-08-21T16:05:41;6.70;;;2.92;;
21814;SDS011;11069;48.988;8.450;2022-08-21T16:08:07;7.50;;;2.90;;
21814;SDS011;11069;48.988;8.450;2022-08-21T16:10:35;5.13;;;2.83;;
21814;SDS011;11069;48.988;8.450;2022-08-21T16:13:03;5.03;;;2.88;;
21814;SDS011;11069;48.988;8.450;2022-08-21T16:15:31;5.07;;;2.80;;
21814;SDS011;11069;48.988;8.450;2022-08-21T16:17:56;6.55;;;3.20;;
21814;SDS011;11069;48.988;8.450;2022-08-21T16:20:27;5.57;;;2.60;;